createdAt,value
2022-12-25T00:02:40.005Z,6.64
2022-12-25T00:07:38.810Z,6.75
2022-12-25T00:12:37.638Z,6.82
2022-12-25T00:17:36.455Z,7.14
2022-12-25T00:22:35.413Z,7.17
2022-12-25T00:27:34.464Z,7.34
2022-12-25T00:32:36.667Z,7.40
2022-12-25T00:37:35.575Z,7.29
2022-12-25T00:42:34.519Z,7.11
2022-12-25T00:47:33.504Z,6.87
2022-12-25T00:52:32.748Z,6.87
2022-12-25T00:57:32.069Z,6.97
2022-12-25T01:02:31.056Z,7.00
2022-12-25T01:07:29.869Z,6.88
2022-12-25T01:12:29.535Z,6.47
2022-12-25T01:17:28.468Z,6.34
2022-12-25T01:22:27.833Z,6.33
2022-12-25T01:27:26.856Z,6.18
2022-12-25T01:32:26.045Z,5.99
2022-12-25T01:37:25.654Z,5.78
2022-12-25T01:42:24.603Z,5.49
2022-12-25T01:47:23.411Z,5.55
2022-12-25T01:52:25.217Z,5.38
2022-12-25T01:57:31.153Z,5.22
2022-12-25T02:02:30.223Z,5.12
2022-12-25T02:07:32.896Z,5.04
2022-12-25T02:12:34.696Z,5.17
2022-12-25T02:17:33.590Z,4.94
2022-12-25T02:23:03.558Z,4.94
2022-12-25T02:28:24.807Z,4.92
2022-12-25T02:33:54.482Z,5.07
2022-12-25T02:39:18.775Z,4.92
2022-12-25T02:44:40.821Z,4.89
2022-12-25T02:50:01.362Z,4.71
2022-12-25T02:55:28.005Z,4.92
2022-12-25T03:00:45.863Z,5.07
2022-12-25T03:06:04.238Z,5.10
2022-12-25T03:11:27.826Z,5.11
2022-12-25T03:16:45.519Z,4.56
2022-12-25T03:22:03.227Z,5.05
2022-12-25T03:27:02.388Z,4.86
2022-12-25T03:32:22.855Z,4.92
2022-12-25T03:37:48.031Z,4.94
2022-12-25T03:43:12.534Z,4.75
2022-12-25T03:48:30.794Z,4.67
2022-12-25T03:53:54.296Z,4.81
2022-12-25T03:59:22.831Z,4.65
2022-12-25T04:04:40.804Z,4.63
2022-12-25T04:09:58.430Z,4.44
2022-12-25T04:15:15.902Z,4.51
2022-12-25T04:20:34.005Z,4.41
2022-12-25T04:25:51.880Z,4.43
2022-12-25T04:31:09.413Z,4.59
2022-12-25T04:36:14.365Z,4.55
2022-12-25T04:41:14.309Z,4.43
2022-12-25T04:46:13.243Z,4.15
2022-12-25T04:51:18.609Z,4.31
2022-12-25T04:56:17.732Z,4.38
2022-12-25T05:01:16.740Z,4.23
2022-12-25T05:06:16.097Z,4.23
2022-12-25T05:11:16.631Z,4.27
2022-12-25T05:16:20.471Z,4.18
2022-12-25T05:21:20.214Z,4.18
2022-12-25T05:26:22.274Z,3.61
2022-12-25T05:31:21.870Z,3.88
2022-12-25T05:36:21.086Z,4.09
2022-12-25T05:41:20.148Z,4.22
2022-12-25T05:46:19.029Z,4.19
2022-12-25T05:51:17.831Z,4.17
2022-12-25T05:56:16.758Z,3.99
2022-12-25T06:01:21.757Z,3.78
2022-12-25T06:06:20.598Z,3.89
2022-12-25T06:11:19.787Z,4.03
2022-12-25T06:16:19.452Z,3.94
2022-12-25T06:21:18.438Z,3.75
2022-12-25T06:26:19.533Z,3.46
2022-12-25T06:31:21.178Z,3.38
2022-12-25T06:36:23.531Z,3.51
2022-12-25T06:41:24.528Z,3.65
2022-12-25T06:46:25.370Z,3.65
2022-12-25T06:51:27.628Z,3.48
2022-12-25T06:56:28.199Z,3.33
2022-12-25T07:01:31.065Z,3.30
2022-12-25T07:06:30.528Z,3.39
2022-12-25T07:11:29.448Z,3.36
2022-12-25T07:16:28.689Z,3.46
2022-12-25T07:21:27.636Z,3.10
2022-12-25T07:26:26.802Z,2.80
2022-12-25T07:31:25.753Z,3.12
2022-12-25T07:36:24.998Z,2.96
2022-12-25T07:41:24.196Z,3.25
2022-12-25T07:46:23.568Z,3.41
2022-12-25T07:51:23.614Z,3.36
2022-12-25T07:56:22.715Z,3.38
2022-12-25T08:01:29.760Z,3.51
2022-12-25T08:06:34.941Z,3.47
2022-12-25T08:11:33.748Z,3.40
2022-12-25T08:16:32.986Z,3.61
2022-12-25T08:21:31.951Z,3.94
2022-12-25T08:26:30.915Z,3.86
2022-12-25T08:31:30.797Z,3.88
2022-12-25T08:36:30.056Z,3.97
2022-12-25T08:41:29.052Z,4.30
2022-12-25T08:46:27.897Z,4.81
2022-12-25T08:51:26.927Z,4.98
2022-12-25T08:56:25.866Z,5.05
2022-12-25T09:01:25.031Z,4.99
2022-12-25T09:06:24.106Z,5.05
2022-12-25T09:11:23.859Z,5.11
2022-12-25T09:16:23.285Z,5.32
2022-12-25T09:21:22.324Z,4.75
2022-12-25T09:26:21.201Z,5.06
2022-12-25T09:31:22.691Z,5.30
2022-12-25T09:36:23.637Z,5.29
2022-12-25T09:41:34.295Z,6.21
2022-12-25T09:46:41.276Z,6.60
2022-12-25T09:51:44.559Z,5.98
2022-12-25T09:56:43.393Z,5.69
2022-12-25T10:01:55.225Z,5.85
2022-12-25T10:07:12.652Z,5.99
2022-12-25T10:12:30.116Z,6.19
2022-12-25T10:18:07.671Z,6.40
2022-12-25T10:23:14.782Z,6.53
2022-12-25T10:28:19.463Z,6.55
2022-12-25T10:33:18.564Z,6.82
2022-12-25T10:38:19.485Z,7.02
2022-12-25T10:43:24.826Z,7.18
2022-12-25T10:48:30.148Z,7.53
2022-12-25T10:53:39.287Z,7.42
2022-12-25T10:58:38.259Z,7.19
2022-12-25T11:03:45.162Z,7.37
2022-12-25T11:08:51.927Z,7.94
2022-12-25T11:14:00.398Z,8.11
2022-12-25T11:19:00.056Z,8.15
2022-12-25T11:24:03.586Z,8.41
2022-12-25T11:29:03.208Z,8.74
2022-12-25T11:34:36.788Z,8.84
2022-12-25T11:39:38.481Z,9.20
2022-12-25T11:44:46.469Z,9.32
2022-12-25T11:50:00.213Z,9.20
2022-12-25T11:55:14.189Z,9.38
2022-12-25T12:00:15.609Z,9.63
2022-12-25T12:05:24.179Z,9.31
2022-12-25T12:10:27.945Z,10.48
2022-12-25T12:15:31.123Z,11.42
2022-12-25T12:20:32.377Z,11.83
2022-12-25T12:25:31.528Z,11.09
2022-12-25T12:30:34.767Z,10.20
2022-12-25T12:35:38.068Z,10.13
2022-12-25T12:40:42.668Z,10.19
2022-12-25T12:45:42.058Z,9.88
2022-12-25T12:50:42.520Z,9.84
2022-12-25T12:55:41.328Z,9.79
2022-12-25T13:01:00.607Z,9.59
2022-12-25T13:06:10.224Z,9.51
2022-12-25T13:11:28.260Z,9.60
2022-12-25T13:16:41.724Z,9.41
2022-12-25T13:21:41.083Z,9.42
2022-12-25T13:26:40.084Z,9.31
2022-12-25T13:31:41.081Z,9.24
2022-12-25T13:36:40.453Z,9.40
2022-12-25T13:42:04.058Z,9.26
2022-12-25T13:47:23.772Z,9.47
2022-12-25T13:52:34.065Z,9.32
2022-12-25T13:57:39.727Z,9.16
2022-12-25T14:02:39.517Z,9.10
2022-12-25T14:07:39.035Z,8.97
2022-12-25T14:12:38.264Z,8.95
2022-12-25T14:17:37.410Z,9.00
2022-12-25T14:22:38.649Z,8.86
2022-12-25T14:27:37.726Z,9.03
2022-12-25T14:32:43.174Z,8.68
2022-12-25T14:37:42.593Z,8.82
2022-12-25T14:42:41.509Z,8.75
2022-12-25T14:47:54.503Z,8.68
2022-12-25T14:52:54.020Z,8.47
2022-12-25T14:58:06.367Z,8.25
2022-12-25T15:03:17.439Z,8.48
2022-12-25T15:08:24.801Z,8.59
2022-12-25T15:13:25.579Z,8.58
2022-12-25T15:18:27.753Z,8.40
2022-12-25T15:23:26.504Z,8.28
2022-12-25T15:28:25.382Z,8.31
2022-12-25T15:33:24.202Z,8.48
2022-12-25T15:38:23.445Z,8.27
2022-12-25T15:43:39.872Z,8.29
2022-12-25T15:48:39.624Z,8.35
2022-12-25T15:53:38.433Z,8.15
2022-12-25T15:58:37.611Z,8.47
2022-12-25T16:03:36.834Z,8.39
2022-12-25T16:08:35.645Z,8.50
2022-12-25T16:13:35.437Z,8.59
2022-12-25T16:18:34.502Z,8.44
2022-12-25T16:23:33.282Z,8.54
2022-12-25T16:28:32.175Z,8.88
2022-12-25T16:33:31.578Z,8.87
2022-12-25T16:38:31.704Z,8.90
2022-12-25T16:43:30.457Z,9.11
2022-12-25T16:48:29.207Z,9.15
2022-12-25T16:53:29.931Z,9.10
2022-12-25T16:58:28.667Z,9.15
2022-12-25T17:03:27.596Z,9.09
2022-12-25T17:08:29.137Z,8.68
2022-12-25T17:13:27.891Z,8.99
2022-12-25T17:18:26.958Z,8.92
2022-12-25T17:23:26.415Z,8.89
2022-12-25T17:28:25.382Z,8.83
2022-12-25T17:33:24.215Z,8.91
2022-12-25T17:38:23.057Z,9.12
2022-12-25T17:43:21.945Z,9.12
2022-12-25T17:48:20.818Z,9.18
2022-12-25T17:53:19.659Z,9.02
2022-12-25T17:58:18.405Z,9.09
2022-12-25T18:03:17.602Z,8.96
2022-12-25T18:08:16.466Z,8.99
2022-12-25T18:13:15.231Z,9.04
2022-12-25T18:18:14.164Z,9.20
2022-12-25T18:23:13.078Z,9.04
2022-12-25T18:28:12.502Z,9.15
2022-12-25T18:33:11.616Z,9.15
2022-12-25T18:38:11.367Z,9.17
2022-12-25T18:43:10.897Z,9.09
2022-12-25T18:48:10.536Z,9.21
2022-12-25T18:53:09.476Z,9.10
2022-12-25T18:58:08.278Z,9.08
2022-12-25T19:03:07.156Z,9.04
2022-12-25T19:08:06.781Z,9.37
2022-12-25T19:13:06.293Z,9.27
2022-12-25T19:18:05.043Z,9.33
2022-12-25T19:23:03.883Z,9.51
2022-12-25T19:28:02.723Z,9.55
2022-12-25T19:33:01.598Z,9.65
2022-12-25T19:38:00.375Z,9.51
2022-12-25T19:42:59.077Z,9.72
2022-12-25T19:47:58.278Z,9.93
2022-12-25T19:52:57.093Z,9.87
2022-12-25T19:57:58.251Z,9.95
2022-12-25T20:02:57.106Z,10.09
2022-12-25T20:07:57.636Z,9.87
2022-12-25T20:12:56.504Z,9.95
2022-12-25T20:17:55.361Z,9.89
2022-12-25T20:22:54.089Z,9.94
2022-12-25T20:27:52.885Z,9.81
2022-12-25T20:32:51.771Z,10.04
2022-12-25T20:37:50.722Z,9.84
2022-12-25T20:42:49.535Z,10.02
2022-12-25T20:47:48.442Z,9.85
2022-12-25T20:52:47.160Z,9.82
2022-12-25T20:57:47.325Z,9.71
2022-12-25T21:02:46.343Z,9.82
2022-12-25T21:07:45.224Z,9.84
2022-12-25T21:12:44.012Z,9.75
2022-12-25T21:17:43.942Z,9.72
2022-12-25T21:22:42.755Z,9.86
2022-12-25T21:27:41.480Z,9.71
2022-12-25T21:32:59.345Z,9.81
2022-12-25T21:37:58.286Z,9.66
2022-12-25T21:42:57.190Z,9.83
2022-12-25T21:48:01.336Z,9.74
2022-12-25T21:53:02.377Z,9.75
2022-12-25T21:58:02.016Z,9.60
2022-12-25T22:03:01.158Z,9.75
2022-12-25T22:08:00.238Z,9.68
2022-12-25T22:13:17.653Z,9.74
2022-12-25T22:18:35.063Z,9.67
2022-12-25T22:23:33.847Z,9.63
2022-12-25T22:28:32.724Z,9.55
2022-12-25T22:33:31.809Z,9.84
2022-12-25T22:38:30.996Z,9.88
2022-12-25T22:44:06.346Z,10.02
2022-12-25T22:48:48.492Z,9.90
2022-12-25T22:53:47.216Z,9.96
2022-12-25T22:58:46.025Z,9.79
2022-12-25T23:03:44.838Z,9.83
2022-12-25T23:08:43.588Z,9.81
2022-12-25T23:14:00.848Z,9.69
2022-12-25T23:19:18.121Z,9.90
2022-12-25T23:24:35.455Z,9.81
2022-12-25T23:29:37.066Z,9.68
2022-12-25T23:34:38.227Z,9.81
2022-12-25T23:39:37.517Z,9.92
2022-12-25T23:44:36.323Z,9.90
2022-12-25T23:49:35.269Z,9.72
2022-12-25T23:54:34.239Z,9.96
2022-12-25T23:59:33.327Z,9.78
